Flight Track Log - Related Links

Times and Time Zones

All times are in EDT time to prevent confusion due to time zone crossing. See the N244A flight status page for this flight to view local times or setup timezone preferences in your user account.

Time Position Orientation Groundspeed Altitude Reporting Facility
EDT Latitude Longitude Course Direction KTS MPH feet Rate Location/Type
Mon 07:09:49 PM 40.0625 -83.1794 258° West 238 274 5,500  Level Indianapolis Center
Mon 07:10:49 PM 40.0103 -83.2419 223° Southwest 253 291 9,400 2,477 Climbing Indianapolis Center
Mon 07:11:38 PM 39.9642 -83.3053 226° Southwest 323 372 10,000 349 Climbing Indianapolis Center
Mon 07:12:15 PM 39.9328 -83.3539 230° Southwest 349 402 9,900  Descending Indianapolis Center
Mon 07:13:17 PM 39.8439 -83.4750 226° Southwest 396 456 10,000 49 Climbing Indianapolis Center
Mon 07:14:18 PM 39.7722 -83.5631 223° Southwest 385 443 10,000  Level Indianapolis Center
Mon 07:15:20 PM 39.7011 -83.6564 225° Southwest 370 426 10,000  Level Indianapolis Center
Mon 07:16:22 PM 39.6308 -83.7472 225° Southwest 361 415 10,000 -195 Level Indianapolis Center
Mon 07:17:23 PM 39.5544 -83.8419 224° Southwest 302 348 9,600 -1,366 Descending Indianapolis Center
Mon 07:18:25 PM 39.5017 -83.9083 224° Southwest 268 308 7,200 -2,323 Descending Indianapolis Center
Mon 07:19:27 PM 39.4514 -83.9767 226° Southwest 261 300 4,800 -1,561 Descending Indianapolis Center
Mon 07:20:28 PM 39.3947 -84.0472 224° Southwest 270 311 4,000 -390 Descending Indianapolis Center
Mon 07:21:30 PM 39.3444 -84.1103 224° Southwest 264 304 4,000  Level Indianapolis Center
Mon 07:22:32 PM 39.2975 -84.1717 225° Southwest 248 285 4,000  Level Indianapolis Center
Mon 07:23:33 PM 39.2464 -84.2258 219° Southwest 239 275 4,000  Level Indianapolis Center
Mon 07:24:35 PM 39.1961 -84.2792 219° Southwest 237 273 4,000 -290 Level Indianapolis Center
Mon 07:25:37 PM 39.1397 -84.3369 218° Southwest 225 259 3,400 -629 Descending Indianapolis Center
Mon 07:26:39 PM 39.1044 -84.3553 202° Southwest 197 227 2,700 -883 Descending Indianapolis Center
Mon 07:28:20 PM 39.0667 -84.4167 232° Southwest 133 153 1,000 -1,010 Descending Cincinnati TRACON
Mon 07:30:00 PM 39.1033 -84.4186 253° West  Level Estimated
Mon 07:37:00 PM 39.1000 -84.4167 57° Northeast  Level FlightAware Approximate

Login

Don't have an account? Register now (free) for customized features, flight alerts, and more!